createdAt,value
2018-10-16T00:00:08.661Z,6.73
2018-10-16T00:02:36.232Z,8.13
2018-10-16T00:05:04.793Z,7.47
2018-10-16T00:07:32.358Z,7.13
2018-10-16T00:09:59.923Z,7.37
2018-10-16T00:12:27.485Z,6.60
2018-10-16T00:14:55.078Z,7.17
2018-10-16T00:17:22.694Z,7.03
2018-10-16T00:19:50.226Z,6.93
2018-10-16T00:22:17.833Z,6.87
2018-10-16T00:24:45.417Z,6.20
2018-10-16T00:27:12.990Z,6.60
2018-10-16T00:29:40.646Z,7.27
2018-10-16T00:32:08.314Z,6.70
2018-10-16T00:34:35.866Z,6.63
2018-10-16T00:37:03.849Z,6.97
2018-10-16T00:39:31.444Z,6.67
2018-10-16T00:41:59.046Z,6.83
2018-10-16T00:44:26.594Z,6.53
2018-10-16T00:46:54.153Z,7.30
2018-10-16T00:49:21.711Z,7.20
2018-10-16T00:51:49.337Z,6.83
2018-10-16T00:54:16.961Z,7.67
2018-10-16T00:56:44.545Z,7.07
2018-10-16T00:59:12.134Z,6.90
2018-10-16T01:01:39.725Z,7.30
2018-10-16T01:04:08.003Z,6.90
2018-10-16T01:06:36.401Z,7.33
2018-10-16T01:09:08.883Z,7.27
2018-10-16T01:11:36.971Z,6.73
2018-10-16T01:14:04.705Z,6.80
2018-10-16T01:16:32.306Z,6.50
2018-10-16T01:18:59.867Z,7.23
2018-10-16T01:21:27.533Z,7.30
2018-10-16T01:23:55.132Z,6.93
2018-10-16T01:26:22.750Z,7.37
2018-10-16T01:28:50.318Z,7.40
2018-10-16T01:31:17.977Z,7.30
2018-10-16T01:33:45.505Z,7.47
2018-10-16T01:36:13.107Z,7.70
2018-10-16T01:38:40.752Z,7.70
2018-10-16T01:41:09.628Z,7.60
2018-10-16T01:43:37.690Z,7.33
2018-10-16T01:46:05.322Z,6.73
2018-10-16T01:48:32.882Z,7.53
2018-10-16T01:51:00.470Z,7.20
2018-10-16T01:53:28.111Z,7.47
2018-10-16T01:55:55.658Z,7.70
2018-10-16T01:58:23.279Z,7.50
2018-10-16T02:00:50.910Z,8.23
2018-10-16T02:03:18.527Z,8.03
2018-10-16T02:05:46.200Z,7.93
2018-10-16T02:08:13.837Z,6.83
2018-10-16T02:10:41.562Z,7.83
2018-10-16T02:13:09.201Z,8.03
2018-10-16T02:15:36.819Z,6.90
2018-10-16T02:18:04.909Z,7.57
2018-10-16T02:20:32.475Z,7.70
2018-10-16T02:23:00.070Z,7.90
2018-10-16T02:25:27.610Z,7.97
2018-10-16T02:27:55.161Z,7.60
2018-10-16T02:30:22.790Z,8.17
2018-10-16T02:32:50.461Z,7.63
2018-10-16T02:35:18.010Z,7.40
2018-10-16T02:37:45.663Z,7.83
2018-10-16T02:40:13.210Z,8.17
2018-10-16T02:42:40.895Z,7.90
2018-10-16T02:45:09.833Z,8.27
2018-10-16T02:47:37.623Z,7.73
2018-10-16T02:50:05.358Z,7.17
2018-10-16T02:52:32.941Z,7.40
2018-10-16T02:55:00.490Z,7.27
2018-10-16T02:57:28.039Z,7.80
2018-10-16T02:59:55.909Z,7.17
2018-10-16T03:02:23.671Z,6.93
2018-10-16T03:04:51.292Z,8.13
2018-10-16T03:07:18.947Z,7.63
2018-10-16T03:09:46.538Z,7.77
2018-10-16T03:12:14.180Z,7.73
2018-10-16T03:14:41.821Z,7.73
2018-10-16T03:17:09.378Z,7.93
2018-10-16T03:19:37.206Z,7.50
2018-10-16T03:22:05.145Z,7.10
2018-10-16T03:24:32.666Z,7.10
2018-10-16T03:27:00.230Z,7.97
2018-10-16T03:29:27.765Z,7.53
2018-10-16T03:31:55.424Z,8.10
2018-10-16T03:34:22.978Z,7.13
2018-10-16T03:36:50.541Z,7.87
2018-10-16T03:39:18.094Z,7.00
2018-10-16T03:41:45.663Z,8.00
2018-10-16T03:44:13.694Z,7.17
2018-10-16T03:46:41.247Z,7.73
2018-10-16T03:49:09.665Z,7.80
2018-10-16T03:51:37.373Z,7.77
2018-10-16T03:54:05.247Z,8.50
2018-10-16T03:56:32.859Z,8.07
2018-10-16T03:59:00.536Z,8.67
2018-10-16T04:01:29.002Z,8.60
2018-10-16T04:03:56.661Z,8.07
2018-10-16T04:06:24.253Z,8.20
2018-10-16T04:08:52.324Z,8.20
2018-10-16T04:11:20.239Z,8.40
2018-10-16T04:13:48.462Z,7.97
2018-10-16T04:16:16.082Z,9.40
2018-10-16T04:18:43.783Z,8.50
2018-10-16T04:21:11.481Z,8.20
2018-10-16T04:23:40.490Z,7.90
2018-10-16T04:26:08.676Z,8.77
2018-10-16T04:28:36.247Z,8.07
2018-10-16T04:31:04.737Z,8.60
2018-10-16T04:33:32.293Z,8.83
2018-10-16T04:35:59.842Z,8.13
2018-10-16T04:38:27.433Z,8.57
2018-10-16T04:40:55.330Z,8.03
2018-10-16T04:43:22.982Z,8.00
2018-10-16T04:45:50.625Z,8.57
2018-10-16T04:48:18.276Z,7.63
2018-10-16T04:50:45.822Z,8.50
2018-10-16T04:53:13.516Z,8.33
2018-10-16T04:55:41.108Z,8.80
2018-10-16T04:58:08.714Z,8.87
2018-10-16T05:00:36.302Z,8.50
2018-10-16T05:03:04.224Z,8.80
2018-10-16T05:05:31.882Z,9.17
2018-10-16T05:07:59.406Z,8.97
2018-10-16T05:10:27.024Z,9.60
2018-10-16T05:12:54.738Z,9.00
2018-10-16T05:15:29.298Z,9.57
2018-10-16T05:17:57.026Z,9.47
2018-10-16T05:20:24.704Z,9.33
2018-10-16T05:22:52.743Z,10.17
2018-10-16T05:25:20.390Z,9.53
2018-10-16T05:27:48.090Z,9.17
2018-10-16T05:30:16.089Z,7.53
2018-10-16T05:32:43.715Z,8.57
2018-10-16T05:35:11.354Z,8.17
2018-10-16T05:37:39.686Z,8.70
2018-10-16T05:40:08.022Z,9.83
2018-10-16T05:42:35.915Z,9.77
2018-10-16T05:45:03.574Z,10.37
2018-10-16T05:47:31.161Z,10.33
2018-10-16T05:49:58.774Z,9.43
2018-10-16T05:52:26.334Z,9.50
2018-10-16T05:54:53.965Z,9.43
2018-10-16T05:57:21.486Z,11.90
2018-10-16T05:59:50.779Z,9.43
2018-10-16T06:02:18.339Z,8.07
2018-10-16T06:04:45.878Z,8.80
2018-10-16T06:07:13.572Z,8.83
2018-10-16T06:09:41.126Z,8.27
2018-10-16T06:12:08.850Z,8.93
2018-10-16T06:14:36.509Z,9.10
2018-10-16T06:17:04.377Z,10.00
2018-10-16T06:19:31.930Z,8.53
2018-10-16T06:21:59.678Z,9.20
2018-10-16T06:24:27.305Z,9.33
2018-10-16T06:26:54.775Z,9.77
2018-10-16T06:29:22.366Z,9.80
2018-10-16T06:31:49.966Z,10.10
2018-10-16T06:34:17.618Z,9.37
2018-10-16T06:36:45.150Z,9.67
2018-10-16T06:39:12.766Z,9.17
2018-10-16T06:41:40.428Z,10.70
2018-10-16T06:44:08.378Z,9.87
2018-10-16T06:46:36.926Z,11.17
2018-10-16T06:49:04.507Z,9.60
2018-10-16T06:51:32.227Z,12.97
2018-10-16T06:53:59.837Z,13.67
2018-10-16T06:56:27.395Z,12.53
2018-10-16T06:58:55.037Z,13.50
2018-10-16T07:01:22.591Z,11.50
2018-10-16T07:03:50.246Z,12.10
2018-10-16T07:06:17.930Z,11.97
2018-10-16T07:08:45.529Z,12.10
2018-10-16T07:11:13.181Z,12.30
2018-10-16T07:13:40.861Z,10.70
2018-10-16T07:16:08.446Z,9.57
2018-10-16T07:18:36.030Z,10.20
2018-10-16T07:21:03.751Z,9.90
2018-10-16T07:23:31.427Z,10.50
2018-10-16T07:25:58.978Z,9.30
2018-10-16T07:28:26.642Z,11.43
2018-10-16T07:30:54.261Z,9.60
2018-10-16T07:33:21.963Z,11.37
2018-10-16T07:35:49.510Z,8.57
2018-10-16T07:38:17.153Z,10.53
2018-10-16T07:40:44.718Z,11.13
2018-10-16T07:43:12.351Z,9.60
2018-10-16T07:45:40.053Z,9.13
2018-10-16T07:48:07.798Z,9.77
2018-10-16T07:50:35.382Z,10.07
2018-10-16T07:53:03.051Z,11.43
2018-10-16T07:55:30.678Z,8.77
2018-10-16T07:57:58.238Z,12.07
2018-10-16T08:00:25.870Z,9.57
2018-10-16T08:02:53.556Z,8.87
2018-10-16T08:05:21.095Z,8.97
2018-10-16T08:07:48.678Z,10.73
2018-10-16T08:10:16.382Z,9.17
2018-10-16T08:12:43.982Z,9.30
2018-10-16T08:15:11.846Z,9.20
2018-10-16T08:17:40.071Z,12.07
2018-10-16T08:20:07.727Z,14.27
2018-10-16T08:22:35.606Z,10.33
2018-10-16T08:25:03.299Z,11.13
2018-10-16T08:27:30.922Z,10.80
2018-10-16T08:29:58.658Z,10.27
2018-10-16T08:32:26.230Z,11.03
2018-10-16T08:34:53.930Z,9.60
2018-10-16T08:39:50.998Z,9.70
2018-10-16T08:43:35.746Z,11.77
2018-10-16T08:46:14.802Z,9.70
2018-10-16T08:48:54.074Z,9.80
2018-10-16T08:51:34.785Z,10.50
2018-10-16T08:54:02.390Z,9.70
2018-10-16T08:56:30.214Z,10.07
2018-10-16T08:58:57.798Z,9.73
2018-10-16T09:01:25.402Z,10.37
2018-10-16T09:03:52.935Z,13.40
2018-10-16T09:06:20.545Z,12.30
2018-10-16T09:08:48.088Z,11.00
2018-10-16T09:11:15.619Z,12.47
2018-10-16T09:13:43.318Z,10.63
2018-10-16T09:16:10.918Z,11.37
2018-10-16T09:18:38.455Z,10.90
2018-10-16T09:21:06.189Z,10.07
2018-10-16T09:23:33.899Z,10.23
2018-10-16T09:26:01.568Z,9.77
2018-10-16T09:28:29.147Z,9.90
2018-10-16T09:30:56.848Z,10.23
2018-10-16T09:33:24.487Z,10.50
2018-10-16T09:35:52.271Z,10.23
2018-10-16T09:38:19.834Z,9.63
2018-10-16T09:40:47.461Z,9.83
2018-10-16T09:43:15.110Z,10.67
2018-10-16T09:45:42.702Z,10.13
2018-10-16T09:48:10.274Z,9.70
2018-10-16T09:50:38.040Z,10.50
2018-10-16T09:53:06.159Z,12.63
2018-10-16T09:55:33.822Z,12.20
2018-10-16T09:58:01.491Z,12.03
2018-10-16T10:00:34.858Z,12.60
2018-10-16T10:03:02.407Z,10.40
2018-10-16T10:05:30.029Z,10.03
2018-10-16T10:07:57.582Z,10.13
2018-10-16T10:10:25.247Z,13.37
2018-10-16T10:12:52.757Z,12.60
2018-10-16T10:15:20.426Z,13.00
2018-10-16T10:17:48.013Z,12.23
2018-10-16T10:20:15.691Z,11.63
2018-10-16T10:22:43.227Z,12.17
2018-10-16T10:25:10.817Z,11.30
2018-10-16T10:27:38.516Z,9.70
2018-10-16T10:30:08.666Z,8.77
2018-10-16T10:32:36.359Z,10.10
2018-10-16T10:35:04.942Z,9.40
2018-10-16T10:37:32.533Z,10.23
2018-10-16T10:40:00.100Z,9.17
2018-10-16T10:42:27.701Z,10.07
2018-10-16T10:44:55.331Z,9.13
2018-10-16T10:47:22.934Z,9.97
2018-10-16T10:49:50.892Z,9.30
2018-10-16T10:52:18.572Z,10.13
2018-10-16T10:54:46.146Z,10.27
2018-10-16T10:57:13.874Z,9.13
2018-10-16T10:59:41.458Z,8.93
2018-10-16T11:02:09.111Z,8.60
2018-10-16T11:04:36.702Z,10.00
2018-10-16T11:07:04.420Z,8.53
2018-10-16T11:09:32.109Z,9.67
2018-10-16T11:11:59.762Z,8.80
2018-10-16T11:14:27.622Z,7.83
2018-10-16T11:16:55.301Z,8.83
2018-10-16T11:19:23.041Z,8.47
2018-10-16T11:21:51.126Z,9.07
2018-10-16T11:24:18.796Z,8.10
2018-10-16T11:26:46.459Z,8.13
2018-10-16T11:29:14.135Z,8.13
2018-10-16T11:31:41.678Z,8.80
2018-10-16T11:34:09.242Z,8.33
2018-10-16T11:36:37.005Z,8.83
2018-10-16T11:39:06.660Z,8.10
2018-10-16T11:41:34.201Z,8.27
2018-10-16T11:44:01.842Z,8.47
2018-10-16T11:46:29.668Z,8.43
2018-10-16T11:48:57.353Z,8.50
2018-10-16T11:51:24.890Z,8.03
2018-10-16T11:53:52.425Z,8.33
2018-10-16T11:56:20.015Z,8.20
2018-10-16T11:58:47.662Z,8.50
2018-10-16T12:01:15.366Z,8.60
2018-10-16T12:03:43.120Z,8.07
2018-10-16T12:06:10.743Z,8.33
2018-10-16T12:08:38.247Z,8.10
2018-10-16T12:11:06.582Z,7.97
2018-10-16T12:13:34.202Z,7.53
2018-10-16T12:16:01.895Z,7.90
2018-10-16T12:18:35.338Z,8.17
2018-10-16T12:21:12.711Z,7.60
2018-10-16T12:23:40.265Z,7.60
2018-10-16T12:26:07.819Z,7.57
2018-10-16T12:28:35.402Z,7.50
2018-10-16T12:31:03.037Z,7.53
2018-10-16T12:33:30.567Z,7.97
2018-10-16T12:35:58.167Z,6.80
2018-10-16T12:38:25.970Z,7.33
2018-10-16T12:40:53.504Z,6.87
2018-10-16T12:43:21.088Z,7.83
2018-10-16T12:45:48.603Z,8.47
2018-10-16T12:48:16.258Z,7.93
2018-10-16T12:50:43.763Z,7.93
2018-10-16T12:53:11.402Z,7.23
2018-10-16T12:55:38.903Z,6.53
2018-10-16T12:58:06.757Z,7.37
2018-10-16T13:00:34.324Z,7.57
2018-10-16T13:03:01.989Z,7.20
2018-10-16T13:05:29.514Z,7.33
2018-10-16T13:07:57.069Z,7.50
2018-10-16T13:10:24.658Z,6.93
2018-10-16T13:12:52.254Z,7.17
2018-10-16T13:15:19.958Z,7.40
2018-10-16T13:17:47.511Z,7.57
2018-10-16T13:20:15.524Z,7.03
2018-10-16T13:22:44.521Z,7.73
2018-10-16T13:25:13.371Z,6.80
2018-10-16T13:27:41.055Z,7.23
2018-10-16T13:30:10.191Z,6.77
2018-10-16T13:32:37.755Z,7.17
2018-10-16T13:35:08.428Z,6.50
2018-10-16T13:37:35.952Z,7.40
2018-10-16T13:40:04.197Z,7.07
2018-10-16T13:42:31.750Z,7.07
2018-10-16T13:44:59.270Z,7.50
2018-10-16T13:47:26.847Z,7.33
2018-10-16T13:49:54.442Z,7.20
2018-10-16T13:52:22.195Z,7.00
2018-10-16T13:54:49.756Z,7.37
2018-10-16T13:57:17.324Z,7.13
2018-10-16T13:59:44.891Z,6.60
2018-10-16T14:02:12.460Z,6.80
2018-10-16T14:04:39.993Z,6.57
2018-10-16T14:07:07.564Z,6.63
2018-10-16T14:09:35.130Z,7.27
2018-10-16T14:12:02.719Z,6.67
2018-10-16T14:14:30.246Z,6.87
2018-10-16T14:16:57.837Z,6.57
2018-10-16T14:19:25.391Z,7.53
2018-10-16T14:21:53.057Z,6.73
2018-10-16T14:24:20.647Z,7.13
2018-10-16T14:26:48.215Z,7.30
2018-10-16T14:29:15.783Z,6.60
2018-10-16T14:31:43.389Z,6.77
2018-10-16T14:34:11.068Z,9.57
2018-10-16T14:36:38.694Z,6.97
2018-10-16T14:39:08.048Z,7.40
2018-10-16T14:41:35.733Z,7.73
2018-10-16T14:44:03.580Z,7.10
2018-10-16T14:46:31.128Z,7.00
2018-10-16T14:48:58.728Z,9.50
2018-10-16T14:51:26.351Z,16.87
2018-10-16T14:53:53.906Z,99.67
2018-10-16T14:56:21.469Z,216.97
2018-10-16T14:58:49.070Z,547.30
2018-10-16T15:01:16.618Z,458.17
2018-10-16T15:03:44.203Z,142.90
2018-10-16T15:06:11.766Z,41.17
2018-10-16T15:08:39.345Z,12.10
2018-10-16T15:11:06.945Z,203.30
2018-10-16T15:13:34.486Z,455.83
2018-10-16T15:16:02.066Z,736.93
2018-10-16T15:18:29.554Z,463.93
2018-10-16T15:20:57.155Z,92.73
2018-10-16T15:23:24.766Z,13.90
2018-10-16T15:25:52.425Z,9.97
2018-10-16T15:28:19.982Z,9.63
2018-10-16T15:30:47.562Z,8.53
2018-10-16T15:33:15.204Z,10.30
2018-10-16T15:35:42.845Z,16.00
2018-10-16T15:38:10.452Z,22.13
2018-10-16T15:40:38.003Z,64.47
2018-10-16T15:43:05.600Z,217.00
2018-10-16T15:45:33.446Z,24.63
2018-10-16T15:48:01.028Z,10.13
2018-10-16T15:50:28.545Z,8.17
2018-10-16T15:52:56.122Z,451.97
2018-10-16T15:55:23.663Z,18.80
2018-10-16T15:57:51.332Z,127.73
2018-10-16T16:00:18.872Z,66.23
2018-10-16T16:02:46.446Z,6.67
2018-10-16T16:05:13.998Z,6.77
2018-10-16T16:07:41.634Z,7.00
2018-10-16T16:10:11.384Z,6.43
2018-10-16T16:12:38.965Z,7.20
2018-10-16T16:15:07.402Z,6.53
2018-10-16T16:17:49.675Z,7.27
2018-10-16T16:20:18.749Z,7.23
2018-10-16T16:22:46.375Z,9.90
2018-10-16T16:25:14.731Z,10.40
2018-10-16T16:27:42.343Z,15.80
2018-10-16T16:30:12.021Z,7.97
2018-10-16T16:32:39.576Z,7.27
2018-10-16T16:35:07.272Z,259.33
2018-10-16T16:37:34.919Z,7.63
2018-10-16T16:40:02.591Z,7.50
2018-10-16T16:42:30.222Z,7.60
2018-10-16T16:44:57.927Z,6.97
2018-10-16T16:47:25.534Z,8.20
2018-10-16T16:49:53.171Z,7.70
2018-10-16T16:52:20.755Z,7.67
2018-10-16T16:55:58.474Z,7.83
2018-10-16T16:58:27.675Z,7.00
2018-10-16T17:00:55.282Z,6.93
2018-10-16T17:03:22.881Z,7.30
2018-10-16T17:05:50.434Z,7.50
2018-10-16T17:08:18.023Z,7.33
2018-10-16T17:10:45.636Z,8.00
2018-10-16T17:13:13.313Z,7.47
2018-10-16T17:15:40.883Z,7.50
2018-10-16T17:18:08.536Z,7.30
2018-10-16T17:20:36.089Z,7.90
2018-10-16T17:23:03.833Z,30.50
2018-10-16T17:25:31.693Z,394.23
2018-10-16T17:27:59.115Z,725.33
2018-10-16T17:30:27.556Z,762.80
2018-10-16T17:32:57.206Z,7.50
2018-10-16T17:35:24.743Z,8.50
2018-10-16T17:37:52.312Z,19.60
2018-10-16T17:40:19.908Z,42.57
2018-10-16T17:42:47.527Z,8.27
2018-10-16T17:45:16.797Z,8.13
2018-10-16T17:47:44.566Z,36.40
2018-10-16T17:50:13.902Z,9.37
2018-10-16T17:52:41.624Z,25.93
2018-10-16T17:55:11.168Z,13.77
2018-10-16T17:57:39.078Z,10.90
2018-10-16T18:00:08.938Z,15.00
2018-10-16T18:02:36.545Z,28.87
2018-10-16T18:05:04.491Z,8.90
2018-10-16T18:07:32.131Z,8.27
2018-10-16T18:09:59.889Z,8.90
2018-10-16T18:12:27.548Z,8.23
2018-10-16T18:14:55.875Z,8.70
2018-10-16T18:17:23.536Z,11.10
2018-10-16T18:19:51.155Z,139.87
2018-10-16T18:22:18.746Z,9.97
2018-10-16T18:24:46.558Z,9.57
2018-10-16T18:27:14.179Z,12.83
2018-10-16T18:29:41.853Z,10.60
2018-10-16T18:32:09.439Z,11.73
2018-10-16T18:34:37.026Z,20.07
2018-10-16T18:37:04.811Z,15.33
2018-10-16T18:39:32.544Z,9.47
2018-10-16T18:42:00.059Z,11.43
2018-10-16T18:44:27.603Z,10.03
2018-10-16T18:46:55.227Z,11.00
2018-10-16T18:49:22.809Z,10.07
2018-10-16T18:51:50.461Z,10.63
2018-10-16T18:54:18.087Z,9.80
2018-10-16T18:56:45.697Z,10.63
2018-10-16T18:59:13.258Z,9.83
2018-10-16T19:01:40.868Z,9.77
2018-10-16T19:04:08.897Z,10.03
2018-10-16T19:06:36.507Z,12.50
2018-10-16T19:09:07.135Z,9.50
2018-10-16T19:11:34.785Z,9.70
2018-10-16T19:14:02.511Z,8.87
2018-10-16T19:16:29.901Z,10.10
2018-10-16T19:18:57.518Z,13.20
2018-10-16T19:21:25.114Z,8.77
2018-10-16T19:23:52.688Z,8.33
2018-10-16T19:26:20.295Z,11.10
2018-10-16T19:28:47.921Z,7.90
2018-10-16T19:31:15.527Z,8.03
2018-10-16T19:33:43.198Z,8.63
2018-10-16T19:36:10.834Z,8.33
2018-10-16T19:38:38.426Z,93.67
2018-10-16T19:41:06.008Z,62.43
2018-10-16T19:43:33.623Z,551.53
2018-10-16T19:46:01.231Z,8.17
2018-10-16T19:48:28.806Z,8.40
2018-10-16T19:50:56.379Z,36.50
2018-10-16T19:53:23.929Z,18.47
2018-10-16T19:55:51.521Z,7.90
2018-10-16T19:58:19.146Z,11.27
2018-10-16T20:00:46.726Z,12.33
2018-10-16T20:03:14.394Z,10.23
2018-10-16T20:05:41.964Z,7.80
2018-10-16T20:08:09.587Z,7.97
2018-10-16T20:10:37.178Z,11.77
2018-10-16T20:13:04.894Z,7.97
2018-10-16T20:15:32.540Z,8.23
2018-10-16T20:18:00.070Z,9.37
2018-10-16T20:20:27.662Z,8.17
2018-10-16T20:22:55.229Z,8.90
2018-10-16T20:25:22.832Z,7.57
2018-10-16T20:27:50.384Z,7.37
2018-10-16T20:30:18.002Z,7.90
2018-10-16T20:32:45.603Z,7.63
2018-10-16T20:35:13.167Z,7.97
2018-10-16T20:37:40.828Z,9.30
2018-10-16T20:40:08.603Z,8.67
2018-10-16T20:42:36.770Z,8.23
2018-10-16T20:45:04.514Z,8.47
2018-10-16T20:47:32.118Z,10.00
2018-10-16T20:49:59.689Z,11.67
2018-10-16T20:52:27.266Z,8.77
2018-10-16T20:54:54.896Z,8.47
2018-10-16T20:57:22.582Z,8.93
2018-10-16T20:59:50.207Z,9.17
2018-10-16T21:02:18.122Z,9.10
2018-10-16T21:04:45.932Z,9.07
2018-10-16T21:07:13.492Z,9.10
2018-10-16T21:09:41.071Z,9.47
2018-10-16T21:12:08.629Z,9.27
2018-10-16T21:14:36.181Z,10.67
2018-10-16T21:17:03.874Z,9.43
2018-10-16T21:19:31.539Z,10.50
2018-10-16T21:21:59.108Z,9.13
2018-10-16T21:24:26.731Z,7.70
2018-10-16T21:27:01.523Z,8.50
2018-10-16T21:29:29.158Z,8.37
2018-10-16T21:31:56.905Z,7.80
2018-10-16T21:34:24.518Z,8.73
2018-10-16T21:36:52.104Z,8.20
2018-10-16T21:39:19.717Z,8.40
2018-10-16T21:41:47.342Z,10.27
2018-10-16T21:44:14.941Z,9.03
2018-10-16T21:46:42.514Z,9.23
2018-10-16T21:49:10.135Z,9.10
2018-10-16T21:51:37.682Z,8.77
2018-10-16T21:54:05.281Z,9.27
2018-10-16T21:56:32.854Z,9.13
2018-10-16T21:59:00.455Z,10.53
2018-10-16T22:01:33.552Z,9.13
2018-10-16T22:04:01.666Z,10.07
2018-10-16T22:06:29.272Z,8.77
2018-10-16T22:08:56.835Z,8.93
2018-10-16T22:11:24.563Z,11.70
2018-10-16T22:13:52.125Z,9.50
2018-10-16T22:16:19.755Z,13.67
2018-10-16T22:18:47.341Z,15.50
2018-10-16T22:21:14.926Z,8.90
2018-10-16T22:23:42.522Z,8.40
2018-10-16T22:26:10.094Z,8.37
2018-10-16T22:28:37.692Z,7.90
2018-10-16T22:31:05.328Z,7.97
2018-10-16T22:33:32.899Z,8.00
2018-10-16T22:36:00.481Z,8.13
2018-10-16T22:38:28.090Z,8.07
2018-10-16T22:40:55.722Z,7.73
2018-10-16T22:43:23.254Z,8.70
2018-10-16T22:45:50.936Z,8.70
2018-10-16T22:48:18.566Z,9.60
2018-10-16T22:50:46.222Z,9.47
2018-10-16T22:53:13.872Z,9.27
2018-10-16T22:55:41.394Z,9.47
2018-10-16T22:58:08.954Z,8.73
2018-10-16T23:00:36.556Z,9.37
2018-10-16T23:03:04.155Z,9.40
2018-10-16T23:05:31.753Z,9.40
2018-10-16T23:07:59.302Z,9.20
2018-10-16T23:10:27.013Z,9.33
2018-10-16T23:13:00.312Z,9.47
2018-10-16T23:15:27.911Z,9.60
2018-10-16T23:17:55.491Z,9.60
2018-10-16T23:20:23.218Z,9.67
2018-10-16T23:22:50.713Z,9.53
2018-10-16T23:25:18.415Z,8.97
2018-10-16T23:27:45.981Z,8.10
2018-10-16T23:30:13.562Z,8.17
2018-10-16T23:32:41.086Z,8.73
2018-10-16T23:35:08.818Z,8.47
2018-10-16T23:37:36.439Z,10.93
2018-10-16T23:40:04.534Z,9.00
2018-10-16T23:42:32.142Z,8.80
2018-10-16T23:44:59.710Z,9.67
2018-10-16T23:47:27.346Z,9.47
2018-10-16T23:49:54.958Z,9.40
2018-10-16T23:52:22.613Z,9.70
2018-10-16T23:54:50.137Z,9.77
2018-10-16T23:57:17.765Z,10.03
2018-10-16T23:59:45.507Z,9.67
